createdAt,value
2017-10-13T00:00:33.683Z,1015.06
2017-10-13T00:01:33.667Z,1015.06
2017-10-13T00:02:33.651Z,1015.09
2017-10-13T00:03:33.635Z,1015.07
2017-10-13T00:04:33.620Z,1015.07
2017-10-13T00:05:33.605Z,1015.04
2017-10-13T00:06:33.588Z,1015.02
2017-10-13T00:07:33.578Z,1015.02
2017-10-13T00:08:33.564Z,1015.02
2017-10-13T00:09:33.545Z,1015.03
2017-10-13T00:10:33.529Z,1015.01
2017-10-13T00:11:33.514Z,1015.01
2017-10-13T00:12:33.497Z,1014.99
2017-10-13T00:13:33.484Z,1014.99
2017-10-13T00:14:33.471Z,1014.96
2017-10-13T00:15:33.452Z,1015.01
2017-10-13T00:16:33.437Z,1014.99
2017-10-13T00:17:33.424Z,1015
2017-10-13T00:18:33.409Z,1015.01
2017-10-13T00:19:33.393Z,1015
2017-10-13T00:20:33.376Z,1014.96
2017-10-13T00:21:33.360Z,1014.96
2017-10-13T00:22:33.346Z,1014.94
2017-10-13T00:23:33.330Z,1014.98
2017-10-13T00:24:33.314Z,1014.96
2017-10-13T00:25:33.302Z,1014.97
2017-10-13T00:26:33.289Z,1014.93
2017-10-13T00:27:33.269Z,1014.96
2017-10-13T00:28:33.255Z,1014.98
2017-10-13T00:29:33.240Z,1014.99
2017-10-13T00:30:33.426Z,1014.96
2017-10-13T00:31:33.211Z,1014.99
2017-10-13T00:32:33.201Z,1015.01
2017-10-13T00:33:33.177Z,1015.01
2017-10-13T00:34:33.163Z,1015.03
2017-10-13T00:35:33.150Z,1015.09
2017-10-13T00:36:33.136Z,1015.05
2017-10-13T00:37:33.119Z,1015.08
2017-10-13T00:38:33.102Z,1015.04
2017-10-13T00:39:33.086Z,1015.07
2017-10-13T00:40:33.072Z,1015.07
2017-10-13T00:41:33.057Z,1015.09
2017-10-13T00:42:33.043Z,1015.09
2017-10-13T00:43:33.026Z,1015.04
2017-10-13T00:44:33.011Z,1015.06
2017-10-13T00:45:32.996Z,1015.01
2017-10-13T00:46:32.988Z,1015.05
2017-10-13T00:47:32.966Z,1015.04
2017-10-13T00:48:32.950Z,1015.02
2017-10-13T00:49:32.936Z,1014.97
2017-10-13T00:50:32.919Z,1014.99
2017-10-13T00:51:32.907Z,1015.01
2017-10-13T00:52:32.892Z,1014.97
2017-10-13T00:53:32.874Z,1014.98
2017-10-13T00:54:32.860Z,1014.98
2017-10-13T00:55:32.847Z,1015.04
2017-10-13T00:56:32.832Z,1015.01
2017-10-13T00:57:32.814Z,1015.06
2017-10-13T00:58:32.799Z,1015.07
2017-10-13T00:59:32.787Z,1015.02
2017-10-13T01:00:32.768Z,1015.05
2017-10-13T01:01:32.753Z,1015.04
2017-10-13T01:02:32.740Z,1015.07
2017-10-13T01:03:32.724Z,1015.1
2017-10-13T01:04:32.706Z,1015.12
2017-10-13T01:05:32.693Z,1015.09
2017-10-13T01:06:32.728Z,1015.05
2017-10-13T01:07:32.669Z,1015.08
2017-10-13T01:08:32.649Z,1015.07
2017-10-13T01:09:32.632Z,1015.07
2017-10-13T01:10:32.618Z,1015.04
2017-10-13T01:11:32.601Z,1015.07
2017-10-13T01:12:32.587Z,1015.08
2017-10-13T01:13:32.572Z,1015.04
2017-10-13T01:14:32.557Z,1015.08
2017-10-13T01:15:32.541Z,1015.12
2017-10-13T01:16:32.536Z,1015.11
2017-10-13T01:17:32.514Z,1015.12
2017-10-13T01:18:32.496Z,1015.12
2017-10-13T01:19:32.480Z,1015.12
2017-10-13T01:20:32.472Z,1015.13
2017-10-13T01:21:32.456Z,1015.12
2017-10-13T01:22:32.439Z,1015.08
2017-10-13T01:23:32.422Z,1015.06
2017-10-13T01:24:32.405Z,1015.04
2017-10-13T01:25:32.390Z,1015
2017-10-13T01:26:32.376Z,1015.05
2017-10-13T01:27:32.359Z,1015.08
2017-10-13T01:28:32.343Z,1015.06
2017-10-13T01:29:32.329Z,1015.01
2017-10-13T01:30:32.315Z,1015.03
2017-10-13T01:31:32.297Z,1015.01
2017-10-13T01:32:32.283Z,1015.01
2017-10-13T01:33:32.271Z,1015.01
2017-10-13T01:34:32.252Z,1015.04
2017-10-13T01:35:32.238Z,1015.02
2017-10-13T01:36:32.222Z,1015.07
2017-10-13T01:37:32.206Z,1015.08
2017-10-13T01:38:32.189Z,1015.13
2017-10-13T01:39:32.176Z,1015.13
2017-10-13T01:40:32.160Z,1015.15
2017-10-13T01:41:32.152Z,1015.18
2017-10-13T01:42:32.131Z,1015.17
2017-10-13T01:43:32.118Z,1015.18
2017-10-13T01:44:32.100Z,1015.17
2017-10-13T01:45:32.083Z,1015.19
2017-10-13T01:46:32.068Z,1015.18
2017-10-13T01:47:32.057Z,1015.18
2017-10-13T01:48:32.035Z,1015.2
2017-10-13T01:49:32.022Z,1015.15
2017-10-13T01:50:32.008Z,1015.12
2017-10-13T01:51:31.997Z,1015.11
2017-10-13T01:52:31.979Z,1015.06
2017-10-13T01:53:31.960Z,1015.1
2017-10-13T01:54:31.946Z,1015.1
2017-10-13T01:55:31.931Z,1015.12
2017-10-13T01:56:31.916Z,1015.13
2017-10-13T01:57:31.903Z,1015.12
2017-10-13T01:58:31.884Z,1015.09
2017-10-13T01:59:31.869Z,1015.1
2017-10-13T02:00:31.853Z,1015.1
2017-10-13T02:01:31.843Z,1015.11
2017-10-13T02:02:31.823Z,1015.12
2017-10-13T02:03:31.807Z,1015.14
2017-10-13T02:04:31.793Z,1015.18
2017-10-13T02:05:31.778Z,1015.13
2017-10-13T02:06:31.764Z,1015.17
2017-10-13T02:07:31.748Z,1015.17
2017-10-13T02:08:31.730Z,1015.14
2017-10-13T02:09:31.715Z,1015.16
2017-10-13T02:10:31.705Z,1015.13
2017-10-13T02:11:31.688Z,1015.17
2017-10-13T02:12:31.671Z,1015.15
2017-10-13T02:13:31.652Z,1015.17
2017-10-13T02:14:31.638Z,1015.17
2017-10-13T02:15:31.638Z,1015.16
2017-10-13T02:16:31.609Z,1015.14
2017-10-13T02:17:31.593Z,1015.14
2017-10-13T02:18:31.575Z,1015.15
2017-10-13T02:19:31.562Z,1015.15
2017-10-13T02:20:31.545Z,1015.17
2017-10-13T02:21:31.529Z,1015.19
2017-10-13T02:22:31.515Z,1015.21
2017-10-13T02:23:31.499Z,1015.15
2017-10-13T02:24:31.482Z,1015.17
2017-10-13T02:25:31.467Z,1015.15
2017-10-13T02:26:31.453Z,1015.16
2017-10-13T02:27:31.435Z,1015.12
2017-10-13T02:28:31.438Z,1015.14
2017-10-13T02:29:31.405Z,1015.14
2017-10-13T02:30:31.391Z,1015.19
2017-10-13T02:31:31.375Z,1015.15
2017-10-13T02:32:31.358Z,1015.2
2017-10-13T02:33:31.342Z,1015.16
2017-10-13T02:34:31.328Z,1015.17
2017-10-13T02:35:31.314Z,1015.18
2017-10-13T02:36:31.297Z,1015.18
2017-10-13T02:37:31.282Z,1015.2
2017-10-13T02:38:31.277Z,1015.2
2017-10-13T02:39:31.251Z,1015.18
2017-10-13T02:40:31.236Z,1015.21
2017-10-13T02:41:31.224Z,1015.16
2017-10-13T02:42:31.204Z,1015.15
2017-10-13T02:43:31.189Z,1015.2
2017-10-13T02:44:31.173Z,1015.19
2017-10-13T02:45:31.162Z,1015.25
2017-10-13T02:46:31.142Z,1015.24
2017-10-13T02:47:31.129Z,1015.28
2017-10-13T02:48:31.113Z,1015.32
2017-10-13T02:49:31.096Z,1015.32
2017-10-13T02:50:31.083Z,1015.32
2017-10-13T02:51:31.067Z,1015.36
2017-10-13T02:52:31.051Z,1015.33
2017-10-13T02:53:31.037Z,1015.36
2017-10-13T02:54:31.020Z,1015.32
2017-10-13T02:55:31.006Z,1015.33
2017-10-13T02:56:30.988Z,1015.37
2017-10-13T02:57:30.972Z,1015.34
2017-10-13T02:58:30.968Z,1015.38
2017-10-13T02:59:30.944Z,1015.34
2017-10-13T03:00:30.929Z,1015.37
2017-10-13T03:01:30.917Z,1015.33
2017-10-13T03:02:30.898Z,1015.32
2017-10-13T03:03:30.883Z,1015.33
2017-10-13T03:04:30.866Z,1015.33
2017-10-13T03:05:30.850Z,1015.33
2017-10-13T03:06:30.839Z,1015.32
2017-10-13T03:07:30.820Z,1015.29
2017-10-13T03:08:30.805Z,1015.31
2017-10-13T03:09:30.789Z,1015.3
2017-10-13T03:10:30.775Z,1015.27
2017-10-13T03:11:30.760Z,1015.24
2017-10-13T03:12:30.755Z,1015.23
2017-10-13T03:13:30.728Z,1015.17
2017-10-13T03:14:30.715Z,1015.19
2017-10-13T03:15:30.705Z,1015.19
2017-10-13T03:16:30.688Z,1015.21
2017-10-13T03:17:30.669Z,1015.18
2017-10-13T03:18:30.653Z,1015.17
2017-10-13T03:19:30.649Z,1015.19
2017-10-13T03:20:30.621Z,1015.15
2017-10-13T03:21:30.610Z,1015.18
2017-10-13T03:22:30.589Z,1015.19
2017-10-13T03:23:30.575Z,1015.16
2017-10-13T03:24:30.560Z,1015.17
2017-10-13T03:25:30.544Z,1015.14
2017-10-13T03:26:30.527Z,1015.17
2017-10-13T03:27:30.513Z,1015.1
2017-10-13T03:28:30.500Z,1015.08
2017-10-13T03:29:30.482Z,1015.11
2017-10-13T03:30:30.480Z,1015.1
2017-10-13T03:31:30.451Z,1015.11
2017-10-13T03:32:30.438Z,1015.12
2017-10-13T03:33:30.418Z,1015.13
2017-10-13T03:34:30.404Z,1015.15
2017-10-13T03:35:30.390Z,1015.13
2017-10-13T03:36:30.374Z,1015.16
2017-10-13T03:37:30.371Z,1015.14
2017-10-13T03:38:30.344Z,1015.13
2017-10-13T03:39:30.329Z,1015.13
2017-10-13T03:40:30.318Z,1015.13
2017-10-13T03:41:30.295Z,1015.13
2017-10-13T03:42:30.280Z,1015.08
2017-10-13T03:43:30.270Z,1015.09
2017-10-13T03:44:30.252Z,1015.08
2017-10-13T03:45:30.240Z,1015.09
2017-10-13T03:46:30.219Z,1015.11
2017-10-13T03:47:30.204Z,1015.07
2017-10-13T03:48:30.188Z,1015.04
2017-10-13T03:49:30.176Z,1015.02
2017-10-13T03:50:30.157Z,1015.02
2017-10-13T03:51:30.142Z,1015.01
2017-10-13T03:52:30.125Z,1014.97
2017-10-13T03:53:30.110Z,1015
2017-10-13T03:54:30.093Z,1014.98
2017-10-13T03:55:30.076Z,1014.96
2017-10-13T03:56:30.063Z,1015.01
2017-10-13T03:57:30.046Z,1015.04
2017-10-13T03:58:30.032Z,1015.07
2017-10-13T03:59:30.016Z,1015.08
2017-10-13T04:00:29.999Z,1015.08
2017-10-13T04:01:29.984Z,1015.12
2017-10-13T04:02:29.968Z,1015.12
2017-10-13T04:03:29.952Z,1015.14
2017-10-13T04:04:29.936Z,1015.16
2017-10-13T04:05:29.920Z,1015.21
2017-10-13T04:06:29.905Z,1015.17
2017-10-13T04:07:29.887Z,1015.21
2017-10-13T04:08:29.874Z,1015.22
2017-10-13T04:09:29.862Z,1015.24
2017-10-13T04:10:29.846Z,1015.25
2017-10-13T04:11:29.825Z,1015.21
2017-10-13T04:12:29.813Z,1015.22
2017-10-13T04:13:29.794Z,1015.2
2017-10-13T04:14:29.781Z,1015.19
2017-10-13T04:15:29.763Z,1015.18
2017-10-13T04:16:29.747Z,1015.23
2017-10-13T04:17:29.730Z,1015.24
2017-10-13T04:18:29.716Z,1015.21
2017-10-13T04:19:29.702Z,1015.2
2017-10-13T04:20:29.685Z,1015.2
2017-10-13T04:21:29.668Z,1015.23
2017-10-13T04:22:29.650Z,1015.21
2017-10-13T04:23:29.839Z,1015.2
2017-10-13T04:24:29.620Z,1015.23
2017-10-13T04:25:29.604Z,1015.22
2017-10-13T04:26:29.589Z,1015.26
2017-10-13T04:27:29.575Z,1015.3
2017-10-13T04:28:29.557Z,1015.34
2017-10-13T04:29:29.542Z,1015.31
2017-10-13T04:30:29.527Z,1015.3
2017-10-13T04:31:29.510Z,1015.29
2017-10-13T04:32:29.497Z,1015.3
2017-10-13T04:33:29.478Z,1015.34
2017-10-13T04:34:29.473Z,1015.36
2017-10-13T04:35:29.445Z,1015.34
2017-10-13T04:36:29.432Z,1015.32
2017-10-13T04:37:29.417Z,1015.3
2017-10-13T04:38:29.404Z,1015.28
2017-10-13T04:39:29.383Z,1015.26
2017-10-13T04:40:29.368Z,1015.3
2017-10-13T04:41:29.352Z,1015.23
2017-10-13T04:42:29.338Z,1015.27
2017-10-13T04:43:29.321Z,1015.32
2017-10-13T04:44:29.309Z,1015.34
2017-10-13T04:45:29.307Z,1015.3
2017-10-13T04:46:29.300Z,1015.33
2017-10-13T04:47:29.258Z,1015.37
2017-10-13T04:48:29.243Z,1015.37
2017-10-13T04:49:29.227Z,1015.38
2017-10-13T04:50:29.214Z,1015.44
2017-10-13T04:51:29.199Z,1015.44
2017-10-13T04:52:29.180Z,1015.4
2017-10-13T04:53:29.166Z,1015.4
2017-10-13T04:54:29.148Z,1015.47
2017-10-13T04:55:29.134Z,1015.43
2017-10-13T04:56:29.119Z,1015.42
2017-10-13T04:57:29.101Z,1015.47
2017-10-13T04:58:29.088Z,1015.44
2017-10-13T04:59:29.071Z,1015.42
2017-10-13T05:00:29.057Z,1015.43
2017-10-13T05:01:29.041Z,1015.39
2017-10-13T05:02:29.028Z,1015.38
2017-10-13T05:03:29.009Z,1015.36
2017-10-13T05:04:28.994Z,1015.35
2017-10-13T05:05:28.983Z,1015.36
2017-10-13T05:06:28.966Z,1015.37
2017-10-13T05:07:28.950Z,1015.37
2017-10-13T05:08:28.931Z,1015.34
2017-10-13T05:09:28.921Z,1015.33
2017-10-13T05:10:28.901Z,1015.28
2017-10-13T05:11:28.887Z,1015.26
2017-10-13T05:12:28.871Z,1015.24
2017-10-13T05:13:28.855Z,1015.25
2017-10-13T05:14:28.839Z,1015.29
2017-10-13T05:15:28.827Z,1015.3
2017-10-13T05:16:28.814Z,1015.36
2017-10-13T05:17:28.797Z,1015.38
2017-10-13T05:18:28.780Z,1015.43
2017-10-13T05:19:28.769Z,1015.45
2017-10-13T05:20:28.756Z,1015.47
2017-10-13T05:21:28.734Z,1015.47
2017-10-13T05:22:28.721Z,1015.48
2017-10-13T05:23:28.704Z,1015.45
2017-10-13T05:24:28.688Z,1015.42
2017-10-13T05:25:28.676Z,1015.43
2017-10-13T05:26:28.659Z,1015.41
2017-10-13T05:27:28.647Z,1015.36
2017-10-13T05:28:28.627Z,1015.35
2017-10-13T05:29:28.612Z,1015.33
2017-10-13T05:30:28.595Z,1015.35
2017-10-13T05:31:28.612Z,1015.38
2017-10-13T05:32:28.566Z,1015.35
2017-10-13T05:33:28.551Z,1015.32
2017-10-13T05:34:28.538Z,1015.29
2017-10-13T05:35:28.529Z,1015.28
2017-10-13T05:36:28.514Z,1015.3
2017-10-13T05:37:28.499Z,1015.3
2017-10-13T05:38:28.477Z,1015.29
2017-10-13T05:39:28.459Z,1015.32
2017-10-13T05:40:28.446Z,1015.34
2017-10-13T05:41:28.427Z,1015.34
2017-10-13T05:42:28.421Z,1015.37
2017-10-13T05:43:28.399Z,1015.38
2017-10-13T05:44:28.384Z,1015.33
2017-10-13T05:45:28.367Z,1015.3
2017-10-13T05:46:28.352Z,1015.29
2017-10-13T05:47:28.337Z,1015.32
2017-10-13T05:48:28.322Z,1015.31
2017-10-13T05:49:28.306Z,1015.33
2017-10-13T05:50:28.294Z,1015.34
2017-10-13T05:51:28.281Z,1015.31
2017-10-13T05:52:28.261Z,1015.34
2017-10-13T05:53:28.246Z,1015.4
2017-10-13T05:54:28.232Z,1015.35
2017-10-13T05:55:28.216Z,1015.35
2017-10-13T05:56:28.199Z,1015.32
2017-10-13T05:57:28.184Z,1015.33
2017-10-13T05:58:28.174Z,1015.33
2017-10-13T05:59:28.187Z,1015.36
2017-10-13T06:00:28.141Z,1015.37
2017-10-13T06:01:28.126Z,1015.38
2017-10-13T06:02:28.112Z,1015.34
2017-10-13T06:03:28.094Z,1015.35
2017-10-13T06:04:28.082Z,1015.33
2017-10-13T06:05:28.069Z,1015.33
2017-10-13T06:06:28.058Z,1015.36
2017-10-13T06:07:28.036Z,1015.33
2017-10-13T06:08:28.020Z,1015.34
2017-10-13T06:09:28.006Z,1015.36
2017-10-13T06:10:27.990Z,1015.35
2017-10-13T06:11:27.977Z,1015.4
2017-10-13T06:12:27.963Z,1015.41
2017-10-13T06:13:27.945Z,1015.38
2017-10-13T06:14:27.929Z,1015.41
2017-10-13T06:15:27.916Z,1015.41
2017-10-13T06:16:27.900Z,1015.45
2017-10-13T06:17:27.886Z,1015.39
2017-10-13T06:18:27.875Z,1015.41
2017-10-13T06:19:27.854Z,1015.4
2017-10-13T06:20:27.841Z,1015.37
2017-10-13T06:21:27.825Z,1015.36
2017-10-13T06:22:27.812Z,1015.35
2017-10-13T06:23:28.000Z,1015.39
2017-10-13T06:24:27.784Z,1015.36
2017-10-13T06:25:27.779Z,1015.34
2017-10-13T06:26:27.755Z,1015.31
2017-10-13T06:27:27.736Z,1015.34
2017-10-13T06:28:27.722Z,1015.38
2017-10-13T06:29:27.706Z,1015.41
2017-10-13T06:30:27.692Z,1015.4
2017-10-13T06:31:27.677Z,1015.41
2017-10-13T06:32:27.661Z,1015.43
2017-10-13T06:33:27.648Z,1015.43
2017-10-13T06:34:27.646Z,1015.48
2017-10-13T06:35:27.620Z,1015.48
2017-10-13T06:36:27.610Z,1015.47
2017-10-13T06:37:27.590Z,1015.49
2017-10-13T06:38:27.582Z,1015.5
2017-10-13T06:39:27.563Z,1015.54
2017-10-13T06:40:27.546Z,1015.53
2017-10-13T06:41:27.529Z,1015.52
2017-10-13T06:42:27.515Z,1015.54
2017-10-13T06:43:27.498Z,1015.57
2017-10-13T06:44:27.496Z,1015.56
2017-10-13T06:45:27.470Z,1015.62
2017-10-13T06:46:27.457Z,1015.63
2017-10-13T06:47:27.441Z,1015.62
2017-10-13T06:48:27.429Z,1015.62
2017-10-13T06:49:27.412Z,1015.64
2017-10-13T06:50:27.405Z,1015.67
2017-10-13T06:51:27.381Z,1015.7
2017-10-13T06:52:27.370Z,1015.7
2017-10-13T06:53:27.355Z,1015.7
2017-10-13T06:54:27.343Z,1015.7
2017-10-13T06:55:27.330Z,1015.68
2017-10-13T06:56:27.314Z,1015.67
2017-10-13T06:57:27.296Z,1015.7
2017-10-13T06:58:27.281Z,1015.66
2017-10-13T06:59:27.267Z,1015.66
2017-10-13T07:00:27.261Z,1015.67
2017-10-13T07:01:27.244Z,1015.69
2017-10-13T07:02:27.222Z,1015.71
2017-10-13T07:03:27.219Z,1015.72
2017-10-13T07:04:27.208Z,1015.69
2017-10-13T07:05:27.182Z,1015.68
2017-10-13T07:06:27.165Z,1015.65
2017-10-13T07:07:27.155Z,1015.66
2017-10-13T07:08:27.143Z,1015.66
2017-10-13T07:09:27.123Z,1015.7
2017-10-13T07:10:27.108Z,1015.72
2017-10-13T07:11:27.092Z,1015.71
2017-10-13T07:12:27.080Z,1015.77
2017-10-13T07:13:27.067Z,1015.8
2017-10-13T07:14:27.057Z,1015.8
2017-10-13T07:15:27.035Z,1015.81
2017-10-13T07:16:27.020Z,1015.81
2017-10-13T07:17:27.008Z,1015.85
2017-10-13T07:18:26.999Z,1015.88
2017-10-13T07:19:26.983Z,1015.83
2017-10-13T07:20:26.966Z,1015.85
2017-10-13T07:21:26.957Z,1015.85
2017-10-13T07:22:26.937Z,1015.85
2017-10-13T07:23:26.923Z,1015.86
2017-10-13T07:24:26.907Z,1015.87
2017-10-13T07:25:26.893Z,1015.89
2017-10-13T07:26:26.878Z,1015.91
2017-10-13T07:27:26.863Z,1015.96
2017-10-13T07:28:26.850Z,1015.96
2017-10-13T07:29:26.838Z,1015.99
2017-10-13T07:30:26.828Z,1016.05
2017-10-13T07:31:26.859Z,1016.01
2017-10-13T07:32:26.793Z,1016.01
2017-10-13T07:33:26.781Z,1015.99
2017-10-13T07:34:26.775Z,1016.03
2017-10-13T07:35:26.759Z,1016.04
2017-10-13T07:36:26.737Z,1016.02
2017-10-13T07:37:26.731Z,1016.05
2017-10-13T07:38:26.708Z,1016.03
2017-10-13T07:39:26.700Z,1016.04
2017-10-13T07:40:26.682Z,1016
2017-10-13T07:41:26.673Z,1016.03
2017-10-13T07:42:26.653Z,1016
2017-10-13T07:43:26.645Z,1016.02
2017-10-13T07:44:26.637Z,1016
2017-10-13T07:45:26.612Z,1016.04
2017-10-13T07:46:26.599Z,1016.09
2017-10-13T07:47:26.586Z,1016.1
2017-10-13T07:48:26.574Z,1016.07
2017-10-13T07:49:26.559Z,1016.11
2017-10-13T07:50:26.544Z,1016.18
2017-10-13T07:51:26.529Z,1016.18
2017-10-13T07:52:26.518Z,1016.14
2017-10-13T07:53:26.503Z,1016.14
2017-10-13T07:54:26.488Z,1016.17
2017-10-13T07:55:26.480Z,1016.17
2017-10-13T07:56:26.461Z,1016.18
2017-10-13T07:57:26.446Z,1016.23
2017-10-13T07:58:26.440Z,1016.28
2017-10-13T07:59:26.422Z,1016.3
2017-10-13T08:00:26.406Z,1016.3
2017-10-13T08:01:26.395Z,1016.31
2017-10-13T08:02:26.379Z,1016.34
2017-10-13T08:03:26.367Z,1016.32
2017-10-13T08:04:26.353Z,1016.31
2017-10-13T08:05:26.339Z,1016.23
2017-10-13T08:06:26.328Z,1016.24
2017-10-13T08:07:26.312Z,1016.26
2017-10-13T08:08:26.300Z,1016.25
2017-10-13T08:09:26.284Z,1016.29
2017-10-13T08:10:26.276Z,1016.26
2017-10-13T08:11:26.260Z,1016.28
2017-10-13T08:12:26.245Z,1016.34
2017-10-13T08:13:26.233Z,1016.39
2017-10-13T08:14:26.220Z,1016.35
2017-10-13T08:15:26.204Z,1016.36
2017-10-13T08:16:26.197Z,1016.35
2017-10-13T08:17:26.280Z,1016.34
2017-10-13T08:18:26.165Z,1016.3
2017-10-13T08:19:26.152Z,1016.23
2017-10-13T08:20:26.141Z,1016.27
2017-10-13T08:21:26.126Z,1016.27
2017-10-13T08:22:26.113Z,1016.26
2017-10-13T08:23:26.302Z,1016.27
2017-10-13T08:24:26.087Z,1016.27
2017-10-13T08:25:26.075Z,1016.26
2017-10-13T08:26:26.062Z,1016.28
2017-10-13T08:27:26.050Z,1016.32
2017-10-13T08:28:26.036Z,1016.34
2017-10-13T08:29:26.022Z,1016.34
2017-10-13T08:30:26.009Z,1016.33
2017-10-13T08:31:25.997Z,1016.31
2017-10-13T08:32:25.986Z,1016.34
2017-10-13T08:33:25.972Z,1016.32
2017-10-13T08:34:25.958Z,1016.28
2017-10-13T08:35:25.945Z,1016.3
2017-10-13T08:36:25.934Z,1016.34
2017-10-13T08:37:25.920Z,1016.37
2017-10-13T08:38:25.909Z,1016.34
2017-10-13T08:39:25.896Z,1016.33
2017-10-13T08:40:25.882Z,1016.33
2017-10-13T08:41:25.875Z,1016.36
2017-10-13T08:42:25.857Z,1016.3
2017-10-13T08:43:25.845Z,1016.33
2017-10-13T08:44:25.831Z,1016.27
2017-10-13T08:45:25.819Z,1016.28
2017-10-13T08:46:25.818Z,1016.29
2017-10-13T08:47:25.794Z,1016.31
2017-10-13T08:48:25.784Z,1016.32
2017-10-13T08:49:25.770Z,1016.32
2017-10-13T08:50:25.758Z,1016.33
2017-10-13T08:51:25.742Z,1016.28
2017-10-13T08:52:25.732Z,1016.26
2017-10-13T08:53:25.719Z,1016.31
2017-10-13T08:54:25.707Z,1016.32
2017-10-13T08:55:25.695Z,1016.24
2017-10-13T08:56:25.690Z,1016.25
2017-10-13T08:57:25.673Z,1016.25
2017-10-13T08:58:25.658Z,1016.27
2017-10-13T08:59:25.645Z,1016.28
2017-10-13T09:00:25.635Z,1016.24
2017-10-13T09:01:25.620Z,1016.24
2017-10-13T09:02:25.608Z,1016.22
2017-10-13T09:03:25.595Z,1016.15
2017-10-13T09:04:25.586Z,1016.18
2017-10-13T09:05:25.572Z,1016.14
2017-10-13T09:06:25.560Z,1016.18
2017-10-13T09:07:25.548Z,1016.18
2017-10-13T09:08:25.537Z,1016.2
2017-10-13T09:09:25.524Z,1016.21
2017-10-13T09:10:25.518Z,1016.22
2017-10-13T09:11:25.500Z,1016.18
2017-10-13T09:12:25.488Z,1016.23
2017-10-13T09:13:25.476Z,1016.2
2017-10-13T09:14:25.464Z,1016.21
2017-10-13T09:15:25.452Z,1016.17
2017-10-13T09:16:25.441Z,1016.2
2017-10-13T09:17:25.429Z,1016.2
2017-10-13T09:18:25.419Z,1016.21
2017-10-13T09:19:25.405Z,1016.23
2017-10-13T09:20:25.391Z,1016.17
2017-10-13T09:21:25.379Z,1016.15
2017-10-13T09:22:25.368Z,1016.13
2017-10-13T09:23:25.356Z,1016.18
2017-10-13T09:24:35.968Z,1016.19
2017-10-13T09:25:25.335Z,1016.2
2017-10-13T09:26:25.322Z,1016.21
2017-10-13T09:27:25.312Z,1016.23
2017-10-13T09:28:25.299Z,1016.18
2017-10-13T09:29:25.287Z,1016.19
2017-10-13T09:30:25.276Z,1016.17
2017-10-13T09:31:25.269Z,1016.25
2017-10-13T09:32:25.253Z,1016.18
2017-10-13T09:33:25.260Z,1016.24
2017-10-13T09:34:25.231Z,1016.22
2017-10-13T09:35:25.220Z,1016.21
2017-10-13T09:36:25.214Z,1016.2
2017-10-13T09:37:25.196Z,1016.23
2017-10-13T09:38:25.194Z,1016.19
2017-10-13T09:39:25.176Z,1016.25
2017-10-13T09:40:25.163Z,1016.21
2017-10-13T09:41:25.155Z,1016.25
2017-10-13T09:42:25.165Z,1016.27
2017-10-13T09:43:25.129Z,1016.23
2017-10-13T09:44:25.121Z,1016.31
2017-10-13T09:45:25.108Z,1016.34
2017-10-13T09:46:25.096Z,1016.29
2017-10-13T09:47:25.085Z,1016.35
2017-10-13T09:48:25.073Z,1016.39
2017-10-13T09:49:25.062Z,1016.39
2017-10-13T09:50:25.050Z,1016.39
2017-10-13T09:51:25.039Z,1016.38
2017-10-13T09:52:25.029Z,1016.42
2017-10-13T09:53:25.017Z,1016.39
2017-10-13T09:54:25.018Z,1016.4
2017-10-13T09:55:24.996Z,1016.38
2017-10-13T09:56:24.990Z,1016.4
2017-10-13T09:57:24.971Z,1016.48
2017-10-13T09:58:24.962Z,1016.44
2017-10-13T09:59:24.950Z,1016.5
2017-10-13T10:00:24.951Z,1016.44
2017-10-13T10:01:24.935Z,1016.46
2017-10-13T10:02:24.917Z,1016.43
2017-10-13T10:03:24.907Z,1016.47
2017-10-13T10:04:24.895Z,1016.51
2017-10-13T10:05:24.885Z,1016.47
2017-10-13T10:06:24.875Z,1016.5
2017-10-13T10:07:24.865Z,1016.48
2017-10-13T10:08:24.854Z,1016.55
2017-10-13T10:09:24.844Z,1016.54
2017-10-13T10:10:24.831Z,1016.56
2017-10-13T10:11:24.828Z,1016.53
2017-10-13T10:12:24.811Z,1016.58
2017-10-13T10:13:24.804Z,1016.53
2017-10-13T10:14:24.794Z,1016.55
2017-10-13T10:15:24.778Z,1016.54
2017-10-13T10:16:24.774Z,1016.53
2017-10-13T10:17:24.758Z,1016.56
2017-10-13T10:18:24.750Z,1016.55
2017-10-13T10:19:24.741Z,1016.57
2017-10-13T10:20:24.741Z,1016.53
2017-10-13T10:21:24.721Z,1016.61
2017-10-13T10:22:24.712Z,1016.62
2017-10-13T10:23:24.900Z,1016.56
2017-10-13T10:24:24.684Z,1016.58
2017-10-13T10:25:24.677Z,1016.57
2017-10-13T10:26:24.663Z,1016.56
2017-10-13T10:27:24.662Z,1016.57
2017-10-13T10:28:24.641Z,1016.57
2017-10-13T10:29:24.631Z,1016.57
2017-10-13T10:30:24.622Z,1016.55
2017-10-13T10:31:24.609Z,1016.62
2017-10-13T10:32:24.597Z,1016.6
2017-10-13T10:33:24.589Z,1016.58
2017-10-13T10:34:24.594Z,1016.62
2017-10-13T10:35:24.581Z,1016.68
2017-10-13T10:36:24.558Z,1016.73
2017-10-13T10:37:24.560Z,1016.65
2017-10-13T10:38:24.538Z,1016.56
2017-10-13T10:39:24.528Z,1016.63
2017-10-13T10:40:24.517Z,1016.64
2017-10-13T10:41:24.507Z,1016.6
2017-10-13T10:42:24.495Z,1016.61
2017-10-13T10:43:24.485Z,1016.66
2017-10-13T10:44:24.479Z,1016.64
2017-10-13T10:45:24.466Z,1016.61
2017-10-13T10:46:24.455Z,1016.62
2017-10-13T10:47:24.444Z,1016.56
2017-10-13T10:48:24.434Z,1016.58
2017-10-13T10:49:24.425Z,1016.56
2017-10-13T10:50:24.414Z,1016.57
2017-10-13T10:51:24.405Z,1016.66
2017-10-13T10:52:24.401Z,1016.6
2017-10-13T10:53:24.383Z,1016.65
2017-10-13T10:54:24.377Z,1016.64
2017-10-13T10:55:24.365Z,1016.66
2017-10-13T10:56:24.352Z,1016.67
2017-10-13T10:57:24.343Z,1016.65
2017-10-13T10:58:24.335Z,1016.69
2017-10-13T10:59:24.324Z,1016.69
2017-10-13T11:00:24.312Z,1016.67
2017-10-13T11:01:24.305Z,1016.63
2017-10-13T11:02:24.294Z,1016.66
2017-10-13T11:03:24.282Z,1016.67
2017-10-13T11:04:24.272Z,1016.65
2017-10-13T11:05:24.265Z,1016.62
2017-10-13T11:06:24.249Z,1016.62
2017-10-13T11:07:24.241Z,1016.6
2017-10-13T11:08:24.229Z,1016.65
2017-10-13T11:09:24.219Z,1016.61
2017-10-13T11:10:24.208Z,1016.64
2017-10-13T11:11:24.203Z,1016.56
2017-10-13T11:12:24.191Z,1016.6
2017-10-13T11:13:24.182Z,1016.57
2017-10-13T11:14:24.169Z,1016.56
2017-10-13T11:15:24.160Z,1016.58
2017-10-13T11:16:24.150Z,1016.6
2017-10-13T11:17:24.142Z,1016.59
2017-10-13T11:18:24.132Z,1016.58
2017-10-13T11:19:24.124Z,1016.59
2017-10-13T11:20:24.126Z,1016.6
2017-10-13T11:21:24.100Z,1016.58
2017-10-13T11:22:24.092Z,1016.59
2017-10-13T11:23:24.083Z,1016.54
2017-10-13T11:24:24.074Z,1016.58
2017-10-13T11:25:24.065Z,1016.61
2017-10-13T11:26:24.056Z,1016.53
2017-10-13T11:27:24.046Z,1016.57
2017-10-13T11:28:24.036Z,1016.54
2017-10-13T11:29:24.027Z,1016.53
2017-10-13T11:30:24.017Z,1016.55
2017-10-13T11:31:24.012Z,1016.55
2017-10-13T11:32:24.000Z,1016.55
2017-10-13T11:33:24.032Z,1016.56
2017-10-13T11:34:23.981Z,1016.54
2017-10-13T11:35:23.972Z,1016.55
2017-10-13T11:36:23.964Z,1016.48
2017-10-13T11:37:23.952Z,1016.56
2017-10-13T11:38:23.946Z,1016.46
2017-10-13T11:39:23.935Z,1016.48
2017-10-13T11:40:23.926Z,1016.46
2017-10-13T11:41:23.919Z,1016.43
2017-10-13T11:42:23.916Z,1016.46
2017-10-13T11:43:23.921Z,1016.47
2017-10-13T11:44:23.892Z,1016.42
2017-10-13T11:45:23.884Z,1016.41
2017-10-13T11:46:23.889Z,1016.39
2017-10-13T11:47:23.864Z,1016.45
2017-10-13T11:48:23.858Z,1016.41
2017-10-13T11:49:23.849Z,1016.44
2017-10-13T11:50:23.839Z,1016.46
2017-10-13T11:51:23.829Z,1016.47
2017-10-13T11:52:23.819Z,1016.47
2017-10-13T11:53:23.811Z,1016.59
2017-10-13T11:54:23.810Z,1016.49
2017-10-13T11:55:23.802Z,1016.56
2017-10-13T11:56:23.786Z,1016.61
2017-10-13T11:57:23.779Z,1016.62
2017-10-13T11:58:23.771Z,1016.58
2017-10-13T11:59:23.761Z,1016.65
2017-10-13T12:00:23.754Z,1016.55
2017-10-13T12:01:23.747Z,1016.54
2017-10-13T12:02:23.740Z,1016.54
2017-10-13T12:03:23.735Z,1016.57
2017-10-13T12:04:23.730Z,1016.59
2017-10-13T12:05:23.737Z,1016.59
2017-10-13T12:06:23.715Z,1016.57
2017-10-13T12:07:23.725Z,1016.56
2017-10-13T12:08:23.704Z,1016.52